createdAt,value
2022-09-28T00:02:21.018Z,9.00
2022-09-28T00:04:47.814Z,9.00
2022-09-28T00:07:14.409Z,8.90
2022-09-28T00:09:40.990Z,8.90
2022-09-28T00:12:07.617Z,9.00
2022-09-28T00:14:34.247Z,9.00
2022-09-28T00:17:00.857Z,9.00
2022-09-28T00:19:27.587Z,9.00
2022-09-28T00:21:54.205Z,8.90
2022-09-28T00:24:25.246Z,9.00
2022-09-28T00:26:55.527Z,9.00
2022-09-28T00:29:26.962Z,9.00
2022-09-28T00:31:59.705Z,8.90
2022-09-28T00:34:27.317Z,8.90
2022-09-28T00:36:54.347Z,8.90
2022-09-28T00:39:21.609Z,8.90
2022-09-28T00:41:48.681Z,8.90
2022-09-28T00:44:24.614Z,8.90
2022-09-28T00:47:10.191Z,8.80
2022-09-28T00:49:48.989Z,8.80
2022-09-28T00:52:18.847Z,8.90
2022-09-28T00:54:47.007Z,8.90
2022-09-28T00:57:14.685Z,9.00
2022-09-28T00:59:41.609Z,9.10
2022-09-28T01:02:10.336Z,9.00
2022-09-28T01:04:38.067Z,9.00
2022-09-28T01:07:05.318Z,9.10
2022-09-28T01:09:32.420Z,9.10
2022-09-28T01:11:59.044Z,9.00
2022-09-28T01:14:25.835Z,9.00
2022-09-28T01:17:13.288Z,9.00
2022-09-28T01:20:05.929Z,9.10
2022-09-28T01:22:45.932Z,9.00
2022-09-28T01:25:12.518Z,9.00
2022-09-28T01:27:49.330Z,8.90
2022-09-28T01:30:16.736Z,9.00
2022-09-28T01:33:03.431Z,9.00
2022-09-28T01:35:33.701Z,9.10
2022-09-28T01:38:02.703Z,9.10
2022-09-28T01:40:30.232Z,9.00
2022-09-28T01:43:00.477Z,9.00
2022-09-28T01:45:29.333Z,9.00
2022-09-28T01:47:59.631Z,9.10
2022-09-28T01:50:28.444Z,9.10
2022-09-28T01:53:13.642Z,9.10
2022-09-28T01:55:43.996Z,9.10
2022-09-28T01:58:13.367Z,9.10
2022-09-28T02:00:42.555Z,9.10
2022-09-28T02:03:16.837Z,9.20
2022-09-28T02:05:48.482Z,9.20
2022-09-28T02:08:20.700Z,9.10
2022-09-28T02:10:56.013Z,9.20
2022-09-28T02:13:26.073Z,9.20
2022-09-28T02:16:03.255Z,9.20
2022-09-28T02:18:30.014Z,9.10
2022-09-28T02:21:00.605Z,9.10
2022-09-28T02:23:29.076Z,9.10
2022-09-28T02:26:00.912Z,9.10
2022-09-28T02:28:27.631Z,9.10
2022-09-28T02:30:55.097Z,9.10
2022-09-28T02:33:28.244Z,9.20
2022-09-28T02:35:55.507Z,9.20
2022-09-28T02:38:22.099Z,9.20
2022-09-28T02:40:55.460Z,9.20
2022-09-28T02:43:29.140Z,9.20
2022-09-28T02:46:10.514Z,9.20
2022-09-28T02:49:10.445Z,9.30
2022-09-28T02:51:51.306Z,9.30
2022-09-28T02:54:18.936Z,9.40
2022-09-28T02:56:45.663Z,9.50
2022-09-28T02:59:15.341Z,9.50
2022-09-28T03:01:42.097Z,9.60
2022-09-28T03:04:23.766Z,9.50
2022-09-28T03:06:50.348Z,9.60
2022-09-28T03:09:25.785Z,9.70
2022-09-28T03:11:54.174Z,9.70
2022-09-28T03:14:20.847Z,9.70
2022-09-28T03:16:47.486Z,9.70
2022-09-28T03:19:16.048Z,9.80
2022-09-28T03:21:42.730Z,9.80
2022-09-28T03:24:11.131Z,9.80
2022-09-28T03:26:38.712Z,9.90
2022-09-28T03:29:05.793Z,9.80
2022-09-28T03:31:32.459Z,9.90
2022-09-28T03:33:59.100Z,9.90
2022-09-28T03:36:25.750Z,10.00
2022-09-28T03:38:55.482Z,10.00
2022-09-28T03:41:23.607Z,10.00
2022-09-28T03:43:50.232Z,10.00
2022-09-28T03:46:16.947Z,10.00
2022-09-28T03:48:43.651Z,10.00
2022-09-28T03:51:11.101Z,9.90
2022-09-28T03:53:37.813Z,9.90
2022-09-28T03:56:05.205Z,9.90
2022-09-28T03:58:32.141Z,9.90
2022-09-28T04:01:03.430Z,10.00
2022-09-28T04:03:30.341Z,9.90
2022-09-28T04:05:56.980Z,9.80
2022-09-28T04:08:23.581Z,9.90
2022-09-28T04:10:50.223Z,9.90
2022-09-28T04:13:16.900Z,10.00
2022-09-28T04:15:43.818Z,10.00
2022-09-28T04:18:11.637Z,10.00
2022-09-28T04:20:41.024Z,10.00
2022-09-28T04:23:07.653Z,9.90
2022-09-28T04:25:34.298Z,10.00
2022-09-28T04:28:19.657Z,10.00
2022-09-28T04:30:46.899Z,10.00
2022-09-28T04:33:13.512Z,10.10
2022-09-28T04:35:40.142Z,10.10
2022-09-28T04:38:06.789Z,10.10
2022-09-28T04:40:33.439Z,10.10
2022-09-28T04:43:00.113Z,10.20
2022-09-28T04:45:27.016Z,10.10
2022-09-28T04:47:54.590Z,10.10
2022-09-28T04:50:21.258Z,10.20
2022-09-28T04:52:47.886Z,10.10
2022-09-28T04:55:14.613Z,9.90
2022-09-28T04:57:41.315Z,9.90
2022-09-28T05:00:08.986Z,9.80
2022-09-28T05:02:35.736Z,9.60
2022-09-28T05:05:02.419Z,9.50
2022-09-28T05:07:29.411Z,9.40
2022-09-28T05:09:56.026Z,9.50
2022-09-28T05:12:22.666Z,9.50
2022-09-28T05:14:49.297Z,9.50
2022-09-28T05:17:15.931Z,9.30
2022-09-28T05:19:43.040Z,9.40
2022-09-28T05:22:14.684Z,9.40
2022-09-28T05:24:41.691Z,9.50
2022-09-28T05:27:08.407Z,9.40
2022-09-28T05:29:35.262Z,9.40
2022-09-28T05:32:02.332Z,9.40
2022-09-28T05:34:29.397Z,9.50
2022-09-28T05:36:56.103Z,9.50
2022-09-28T05:39:22.874Z,9.50
2022-09-28T05:41:49.531Z,9.50
2022-09-28T05:44:16.357Z,9.50
2022-09-28T05:46:43.133Z,9.50
2022-09-28T05:49:09.891Z,9.40
2022-09-28T05:51:36.663Z,9.50
2022-09-28T05:54:05.950Z,9.50
2022-09-28T05:56:33.224Z,9.40
2022-09-28T05:58:59.927Z,9.40
2022-09-28T06:01:26.864Z,9.30
2022-09-28T06:03:53.639Z,9.40
2022-09-28T06:06:20.354Z,9.40
2022-09-28T06:08:48.509Z,9.50
2022-09-28T06:11:15.300Z,9.50
2022-09-28T06:13:42.045Z,9.50
2022-09-28T06:16:10.539Z,9.50
2022-09-28T06:18:37.290Z,9.50
2022-09-28T06:21:05.912Z,9.60
2022-09-28T06:23:32.633Z,9.50
2022-09-28T06:26:00.154Z,9.50
2022-09-28T06:28:27.012Z,9.50
2022-09-28T06:30:54.141Z,9.60
2022-09-28T06:33:21.968Z,9.60
2022-09-28T06:35:48.745Z,9.60
2022-09-28T06:38:15.475Z,9.60
2022-09-28T06:40:42.258Z,9.70
2022-09-28T06:43:14.936Z,9.80
2022-09-28T06:45:42.476Z,9.80
2022-09-28T06:48:10.454Z,9.80
2022-09-28T06:50:39.499Z,9.80
2022-09-28T06:53:07.502Z,9.80
2022-09-28T06:55:34.230Z,9.80
2022-09-28T06:58:02.273Z,9.80
2022-09-28T07:00:31.200Z,9.80
2022-09-28T07:02:57.916Z,9.80
2022-09-28T07:05:27.476Z,9.90
2022-09-28T07:07:57.249Z,10.00
2022-09-28T07:10:25.423Z,10.00
2022-09-28T07:12:52.428Z,10.00
2022-09-28T07:15:19.734Z,10.10
2022-09-28T07:17:58.720Z,10.00
2022-09-28T07:20:27.930Z,10.00
2022-09-28T07:22:55.353Z,10.00
2022-09-28T07:25:22.484Z,9.90
2022-09-28T07:27:49.223Z,9.90
2022-09-28T07:30:16.096Z,10.00
2022-09-28T07:32:44.940Z,10.20
2022-09-28T07:35:11.696Z,10.30
2022-09-28T07:37:38.357Z,10.40
2022-09-28T07:40:24.318Z,10.40
2022-09-28T07:42:51.235Z,10.30
2022-09-28T07:45:20.737Z,10.50
2022-09-28T07:47:47.480Z,10.50
2022-09-28T07:50:14.301Z,10.70
2022-09-28T07:52:41.050Z,10.90
2022-09-28T07:55:07.997Z,10.90
2022-09-28T07:57:35.379Z,11.10
2022-09-28T08:00:03.936Z,11.00
2022-09-28T08:02:33.924Z,11.10
2022-09-28T08:05:01.283Z,11.10
2022-09-28T08:07:28.121Z,11.20
2022-09-28T08:09:55.031Z,11.30
2022-09-28T08:12:22.005Z,11.40
2022-09-28T08:14:49.331Z,11.40
2022-09-28T08:17:16.085Z,11.40
2022-09-28T08:20:01.202Z,11.40
2022-09-28T08:22:32.284Z,11.20
2022-09-28T08:24:59.013Z,11.20
2022-09-28T08:27:25.773Z,11.40
2022-09-28T08:29:52.456Z,11.50
2022-09-28T08:32:19.577Z,11.50
2022-09-28T08:34:46.294Z,11.30
2022-09-28T08:37:12.978Z,11.30
2022-09-28T08:39:39.738Z,11.60
2022-09-28T08:42:06.526Z,11.80
2022-09-28T08:44:39.423Z,11.70
2022-09-28T08:47:07.896Z,11.60
2022-09-28T08:49:36.972Z,11.70
2022-09-28T08:52:07.915Z,11.80
2022-09-28T08:54:40.585Z,11.60
2022-09-28T08:57:07.271Z,11.70
2022-09-28T08:59:53.709Z,11.80
2022-09-28T09:02:20.519Z,11.80
2022-09-28T09:04:47.734Z,11.70
2022-09-28T09:07:36.425Z,11.60
2022-09-28T09:10:09.100Z,11.60
2022-09-28T09:12:43.071Z,11.50
2022-09-28T09:15:17.548Z,11.70
2022-09-28T09:17:46.988Z,12.00
2022-09-28T09:20:13.717Z,12.60
2022-09-28T09:22:42.032Z,12.70
2022-09-28T09:25:25.489Z,12.80
2022-09-28T09:27:52.187Z,13.00
2022-09-28T09:30:22.074Z,13.30
2022-09-28T09:32:53.423Z,13.00
2022-09-28T09:35:31.477Z,12.90
2022-09-28T09:38:22.101Z,12.90
2022-09-28T09:41:23.155Z,13.20
2022-09-28T09:43:59.932Z,13.70
2022-09-28T09:46:32.648Z,13.80
2022-09-28T09:49:04.506Z,14.20
2022-09-28T09:51:38.483Z,14.10
2022-09-28T09:54:23.365Z,14.10
2022-09-28T09:56:53.435Z,14.30
2022-09-28T09:59:24.305Z,14.70
2022-09-28T10:01:52.117Z,15.10
2022-09-28T10:04:27.365Z,15.70
2022-09-28T10:06:57.911Z,16.00
2022-09-28T10:09:26.574Z,15.90
2022-09-28T10:11:54.061Z,15.30
2022-09-28T10:14:22.237Z,15.20
2022-09-28T10:16:53.312Z,15.40
2022-09-28T10:19:21.763Z,15.50
2022-09-28T10:21:50.874Z,15.10
2022-09-28T10:24:22.628Z,14.90
2022-09-28T10:26:52.632Z,15.10
2022-09-28T10:29:25.182Z,14.80
2022-09-28T10:31:52.818Z,14.90
2022-09-28T10:34:25.625Z,15.30
2022-09-28T10:36:56.004Z,15.00
2022-09-28T10:39:28.577Z,15.40
2022-09-28T10:41:55.446Z,15.90
2022-09-28T10:44:22.878Z,16.40
2022-09-28T10:46:56.883Z,16.50
2022-09-28T10:49:24.711Z,16.70
2022-09-28T10:51:54.619Z,16.30
2022-09-28T10:54:25.707Z,16.40
2022-09-28T10:56:53.743Z,16.80
2022-09-28T10:59:29.766Z,16.70
2022-09-28T11:02:02.427Z,16.60
2022-09-28T11:04:30.660Z,16.50
2022-09-28T11:09:31.391Z,15.90
2022-09-28T11:11:59.005Z,15.70
2022-09-28T11:14:43.677Z,15.50
2022-09-28T11:17:18.933Z,15.50
2022-09-28T11:19:45.762Z,15.30
2022-09-28T11:22:31.113Z,15.30
2022-09-28T11:25:19.201Z,15.00
2022-09-28T11:27:51.894Z,14.90
2022-09-28T11:30:38.890Z,15.30
2022-09-28T11:33:19.237Z,15.40
2022-09-28T11:36:00.224Z,15.70
2022-09-28T11:38:34.145Z,15.80
2022-09-28T11:41:14.695Z,15.50
2022-09-28T11:44:03.300Z,15.50
2022-09-28T11:46:33.961Z,15.70
2022-09-28T11:49:04.032Z,15.50
2022-09-28T11:51:32.083Z,15.40
2022-09-28T11:54:04.763Z,15.30
2022-09-28T11:56:37.970Z,15.40
2022-09-28T11:59:04.639Z,15.10
2022-09-28T12:01:40.765Z,15.20
2022-09-28T12:04:31.297Z,15.50
2022-09-28T12:07:03.708Z,15.50
2022-09-28T12:09:33.426Z,15.20
2022-09-28T12:12:02.402Z,15.10
2022-09-28T12:14:30.895Z,15.20
2022-09-28T12:17:06.753Z,15.10
2022-09-28T12:19:48.531Z,14.90
2022-09-28T12:22:25.445Z,14.60
2022-09-28T12:24:54.454Z,14.70
2022-09-28T12:27:32.617Z,15.00
2022-09-28T12:30:04.759Z,15.10
2022-09-28T12:32:38.232Z,15.20
2022-09-28T12:35:16.141Z,15.40
2022-09-28T12:37:55.798Z,15.50
2022-09-28T12:40:22.615Z,15.60
2022-09-28T12:43:08.261Z,15.50
2022-09-28T12:45:38.864Z,15.60
2022-09-28T12:48:22.852Z,15.50
2022-09-28T12:50:58.121Z,15.30
2022-09-28T12:53:29.676Z,14.90
2022-09-28T12:56:04.108Z,14.80
2022-09-28T12:58:30.986Z,14.60
2022-09-28T13:01:08.728Z,14.60
2022-09-28T13:03:35.549Z,14.60
2022-09-28T13:06:15.957Z,14.80
2022-09-28T13:08:42.699Z,14.70
2022-09-28T13:11:18.650Z,14.80
2022-09-28T13:14:14.831Z,14.80
2022-09-28T13:16:47.688Z,14.90
2022-09-28T13:19:26.403Z,14.80
2022-09-28T13:22:12.662Z,14.70
2022-09-28T13:24:44.282Z,14.60
2022-09-28T13:27:14.933Z,14.40
2022-09-28T13:29:42.339Z,14.60
2022-09-28T13:32:11.711Z,14.60
2022-09-28T13:34:39.139Z,14.60
2022-09-28T13:37:26.189Z,14.70
2022-09-28T13:39:59.362Z,14.80
2022-09-28T13:42:46.372Z,14.70
2022-09-28T13:45:22.466Z,14.60
2022-09-28T13:47:52.460Z,14.70
2022-09-28T13:50:37.263Z,14.70
2022-09-28T13:53:19.754Z,14.80
2022-09-28T13:56:04.932Z,14.70
2022-09-28T13:58:35.772Z,14.50
2022-09-28T14:01:14.013Z,14.30
2022-09-28T14:04:03.771Z,14.30
2022-09-28T14:06:33.539Z,14.20
2022-09-28T14:09:06.122Z,14.20
2022-09-28T14:11:35.888Z,14.30
2022-09-28T14:14:05.583Z,14.30
2022-09-28T14:16:33.349Z,14.30
2022-09-28T14:19:01.758Z,14.20
2022-09-28T14:21:47.153Z,14.40
2022-09-28T14:24:13.841Z,14.40
2022-09-28T14:26:59.935Z,14.40
2022-09-28T14:29:28.817Z,14.30
2022-09-28T14:31:57.147Z,14.30
2022-09-28T14:34:25.862Z,14.40
2022-09-28T14:37:11.331Z,14.10
2022-09-28T14:39:56.914Z,14.00
2022-09-28T14:42:24.868Z,13.90
2022-09-28T14:45:05.232Z,13.80
2022-09-28T14:47:33.942Z,13.80
2022-09-28T14:50:01.847Z,13.80
2022-09-28T14:52:43.557Z,13.60
2022-09-28T14:55:14.948Z,13.60
2022-09-28T14:57:42.485Z,13.60
2022-09-28T15:00:18.604Z,13.70
2022-09-28T15:02:49.119Z,13.70
2022-09-28T15:05:16.142Z,13.70
2022-09-28T15:07:46.149Z,13.80
2022-09-28T15:10:28.279Z,14.00
2022-09-28T15:12:57.207Z,14.00
2022-09-28T15:15:26.828Z,14.00
2022-09-28T15:18:00.293Z,13.90
2022-09-28T15:20:31.610Z,13.80
2022-09-28T15:22:59.984Z,13.60
2022-09-28T15:25:28.194Z,13.40
2022-09-28T15:27:56.149Z,13.30
2022-09-28T15:30:25.911Z,13.40
2022-09-28T15:32:56.653Z,13.20
2022-09-28T15:35:26.349Z,13.20
2022-09-28T15:37:54.380Z,13.10
2022-09-28T15:40:27.709Z,13.10
2022-09-28T15:43:00.863Z,13.00
2022-09-28T15:45:27.751Z,13.00
2022-09-28T15:47:58.437Z,13.10
2022-09-28T15:50:29.151Z,13.10
2022-09-28T15:53:00.866Z,13.10
2022-09-28T15:55:27.701Z,13.10
2022-09-28T15:58:16.013Z,13.00
2022-09-28T16:00:43.157Z,12.90
2022-09-28T16:03:09.965Z,12.90
2022-09-28T16:05:46.685Z,12.90
2022-09-28T16:08:24.974Z,12.80
2022-09-28T16:11:31.484Z,12.70
2022-09-28T16:14:01.518Z,12.60
2022-09-28T16:16:30.098Z,12.70
2022-09-28T16:18:58.183Z,12.50
2022-09-28T16:21:46.419Z,12.40
2022-09-28T16:24:24.285Z,12.40
2022-09-28T16:26:58.585Z,12.30
2022-09-28T16:29:28.452Z,12.20
2022-09-28T16:32:01.047Z,12.10
2022-09-28T16:34:30.825Z,12.00
2022-09-28T16:36:57.530Z,11.90
2022-09-28T16:39:25.050Z,11.80
2022-09-28T16:41:53.952Z,11.80
2022-09-28T16:44:23.509Z,11.70
2022-09-28T16:46:56.354Z,11.60
2022-09-28T16:49:29.287Z,11.50
2022-09-28T16:52:00.247Z,11.30
2022-09-28T16:54:45.745Z,11.30
2022-09-28T16:57:13.478Z,11.20
2022-09-28T16:59:40.141Z,11.10
2022-09-28T17:02:35.325Z,11.00
2022-09-28T17:05:06.377Z,10.90
2022-09-28T17:07:33.199Z,10.80
2022-09-28T17:10:00.099Z,10.70
2022-09-28T17:12:28.285Z,10.60
2022-09-28T17:14:55.189Z,10.50
2022-09-28T17:17:22.837Z,10.40
2022-09-28T17:19:49.592Z,10.30
2022-09-28T17:22:16.845Z,10.20
2022-09-28T17:24:45.575Z,10.10
2022-09-28T17:27:15.562Z,10.10
2022-09-28T17:29:42.340Z,10.00
2022-09-28T17:32:13.993Z,9.90
2022-09-28T17:34:40.761Z,9.80
2022-09-28T17:37:09.276Z,9.70
2022-09-28T17:39:36.126Z,9.60
2022-09-28T17:42:02.924Z,9.60
2022-09-28T17:44:29.627Z,9.50
2022-09-28T17:46:56.466Z,9.50
2022-09-28T17:49:23.143Z,9.40
2022-09-28T17:51:50.407Z,9.40
2022-09-28T17:54:20.812Z,9.30
2022-09-28T17:56:47.846Z,9.40
2022-09-28T17:59:16.814Z,9.30
2022-09-28T18:01:43.655Z,9.30
2022-09-28T18:04:23.059Z,9.20
2022-09-28T18:06:54.632Z,9.20
2022-09-28T18:09:25.302Z,9.10
2022-09-28T18:11:58.181Z,9.10
2022-09-28T18:14:24.900Z,9.10
2022-09-28T18:16:51.591Z,9.00
2022-09-28T18:19:18.340Z,9.00
2022-09-28T18:21:45.109Z,8.90
2022-09-28T18:24:11.862Z,8.90
2022-09-28T18:26:38.664Z,8.80
2022-09-28T18:29:05.406Z,8.80
2022-09-28T18:31:32.195Z,8.70
2022-09-28T18:34:02.787Z,8.70
2022-09-28T18:36:35.625Z,8.60
2022-09-28T18:39:02.573Z,8.60
2022-09-28T18:41:29.360Z,8.60
2022-09-28T18:44:00.900Z,8.60
2022-09-28T18:46:28.388Z,8.40
2022-09-28T18:48:55.501Z,8.50
2022-09-28T18:51:22.521Z,8.50
2022-09-28T18:53:49.352Z,8.50
2022-09-28T18:56:18.327Z,8.50
2022-09-28T18:58:45.862Z,8.50
2022-09-28T19:01:33.078Z,8.60
2022-09-28T19:04:00.991Z,8.50
2022-09-28T19:06:27.960Z,8.50
2022-09-28T19:08:58.162Z,8.50
2022-09-28T19:11:25.398Z,8.50
2022-09-28T19:13:53.144Z,8.40
2022-09-28T19:16:21.858Z,8.40
2022-09-28T19:18:48.592Z,8.30
2022-09-28T19:21:15.775Z,8.30
2022-09-28T19:23:46.962Z,8.30
2022-09-28T19:26:17.866Z,8.30
2022-09-28T19:28:44.673Z,8.30
2022-09-28T19:31:11.501Z,8.20
2022-09-28T19:33:38.849Z,8.20
2022-09-28T19:36:06.752Z,8.20
2022-09-28T19:38:34.723Z,8.10
2022-09-28T19:41:01.719Z,8.10
2022-09-28T19:43:28.767Z,8.00
2022-09-28T19:45:55.994Z,8.00
2022-09-28T19:48:26.759Z,8.00
2022-09-28T19:50:58.544Z,7.90
2022-09-28T19:53:26.042Z,7.90
2022-09-28T19:55:53.852Z,7.90
2022-09-28T19:58:21.472Z,7.70
2022-09-28T20:00:48.288Z,7.70
2022-09-28T20:03:14.962Z,7.70
2022-09-28T20:05:42.496Z,7.70
2022-09-28T20:08:09.617Z,7.70
2022-09-28T20:10:36.360Z,7.60
2022-09-28T20:13:03.164Z,7.50
2022-09-28T20:15:29.921Z,7.50
2022-09-28T20:17:58.058Z,7.40
2022-09-28T20:20:26.824Z,7.40
2022-09-28T20:22:54.100Z,7.50
2022-09-28T20:25:20.883Z,7.40
2022-09-28T20:27:47.528Z,7.40
2022-09-28T20:30:14.367Z,7.40
2022-09-28T20:32:41.013Z,7.40
2022-09-28T20:35:07.921Z,7.40
2022-09-28T20:37:34.593Z,7.40
2022-09-28T20:40:01.761Z,7.40
2022-09-28T20:42:31.116Z,7.40
2022-09-28T20:44:57.898Z,7.20
2022-09-28T20:47:24.493Z,7.20
2022-09-28T20:49:51.113Z,7.30
2022-09-28T20:52:17.766Z,7.20
2022-09-28T20:54:44.367Z,7.30
2022-09-28T20:57:21.058Z,7.30
2022-09-28T20:59:51.004Z,7.40
2022-09-28T21:02:20.441Z,7.40
2022-09-28T21:04:47.457Z,7.40
2022-09-28T21:07:14.102Z,7.40
2022-09-28T21:09:40.779Z,7.40
2022-09-28T21:12:09.176Z,7.40
2022-09-28T21:14:36.007Z,7.40
2022-09-28T21:17:02.743Z,7.40
2022-09-28T21:19:29.919Z,7.40
2022-09-28T21:21:56.559Z,7.30
2022-09-28T21:24:23.194Z,7.20
2022-09-28T21:26:49.865Z,7.20
2022-09-28T21:29:16.453Z,7.10
2022-09-28T21:31:46.660Z,7.10
2022-09-28T21:34:14.420Z,7.30
2022-09-28T21:36:42.653Z,7.00
2022-09-28T21:39:10.524Z,6.90
2022-09-28T21:41:37.417Z,6.80
2022-09-28T21:44:04.109Z,6.80
2022-09-28T21:46:34.293Z,6.80
2022-09-28T21:49:01.605Z,6.70
2022-09-28T21:51:28.298Z,6.60
2022-09-28T21:53:54.936Z,6.60
2022-09-28T21:56:23.017Z,6.60
2022-09-28T21:58:50.031Z,6.50
2022-09-28T22:01:19.459Z,6.50
2022-09-28T22:03:50.587Z,6.50
2022-09-28T22:06:18.374Z,6.40
2022-09-28T22:08:45.671Z,6.40
2022-09-28T22:11:16.793Z,6.30
2022-09-28T22:13:54.207Z,6.30
2022-09-28T22:16:23.131Z,6.20
2022-09-28T22:18:49.979Z,6.20
2022-09-28T22:21:18.145Z,6.10
2022-09-28T22:23:44.813Z,6.10
2022-09-28T22:26:12.888Z,6.00
2022-09-28T22:28:44.190Z,6.00
2022-09-28T22:31:10.885Z,6.00
2022-09-28T22:33:37.565Z,6.00
2022-09-28T22:36:04.261Z,5.80
2022-09-28T22:38:31.859Z,5.80
2022-09-28T22:40:58.552Z,5.70
2022-09-28T22:43:26.081Z,5.60
2022-09-28T22:46:02.164Z,5.60
2022-09-28T22:48:29.362Z,5.60
2022-09-28T22:50:55.999Z,5.60
2022-09-28T22:53:22.769Z,5.50
2022-09-28T22:55:49.403Z,5.50
2022-09-28T22:58:15.988Z,5.50
2022-09-28T23:00:43.218Z,5.50
2022-09-28T23:03:09.944Z,5.50
2022-09-28T23:05:36.532Z,5.40
2022-09-28T23:08:03.356Z,5.50
2022-09-28T23:10:29.924Z,5.40
2022-09-28T23:12:56.903Z,5.40
2022-09-28T23:15:24.543Z,5.30
2022-09-28T23:17:54.746Z,5.30
2022-09-28T23:20:21.731Z,5.20
2022-09-28T23:22:48.714Z,5.20
2022-09-28T23:25:16.405Z,5.10
2022-09-28T23:27:49.944Z,5.10
2022-09-28T23:30:17.737Z,5.10
2022-09-28T23:32:44.547Z,5.10
2022-09-28T23:35:11.617Z,5.10
2022-09-28T23:37:38.254Z,5.10
2022-09-28T23:40:05.575Z,5.00
2022-09-28T23:42:32.339Z,5.00
2022-09-28T23:44:58.964Z,5.00
2022-09-28T23:47:25.591Z,5.00
2022-09-28T23:49:52.322Z,5.00
2022-09-28T23:52:18.936Z,5.10
2022-09-28T23:54:45.582Z,5.20
2022-09-28T23:57:12.222Z,5.20
2022-09-28T23:59:38.907Z,5.30
